sensor_id;sensor_type;location;lat;lon;timestamp;P1;durP1;ratioP1;P2;durP2;ratioP2
16640;SDS011;8434;47.990;7.880;2022-09-12T00:01:46;2.93;;;2.63;;
16640;SDS011;8434;47.990;7.880;2022-09-12T00:04:31;4.00;;;2.23;;
16640;SDS011;8434;47.990;7.880;2022-09-12T00:07:17;4.57;;;2.10;;
16640;SDS011;8434;47.990;7.880;2022-09-12T00:10:02;4.90;;;2.33;;
16640;SDS011;8434;47.990;7.880;2022-09-12T00:12:47;3.47;;;2.50;;
16640;SDS011;8434;47.990;7.880;2022-09-12T00:15:36;5.20;;;2.50;;
16640;SDS011;8434;47.990;7.880;2022-09-12T00:18:21;2.97;;;2.13;;
16640;SDS011;8434;47.990;7.880;2022-09-12T00:21:06;5.07;;;2.30;;
16640;SDS011;8434;47.990;7.880;2022-09-12T00:23:53;2.50;;;2.30;;
16640;SDS011;8434;47.990;7.880;2022-09-12T00:26:38;4.07;;;2.20;;
16640;SDS011;8434;47.990;7.880;2022-09-12T00:29:23;3.50;;;2.60;;
16640;SDS011;8434;47.990;7.880;2022-09-12T00:32:08;4.10;;;2.50;;
16640;SDS011;8434;47.990;7.880;2022-09-12T00:34:53;2.70;;;2.33;;
16640;SDS011;8434;47.990;7.880;2022-09-12T00:37:38;3.57;;;2.50;;
16640;SDS011;8434;47.990;7.880;2022-09-12T00:40:24;3.50;;;2.77;;
16640;SDS011;8434;47.990;7.880;2022-09-12T00:43:11;4.93;;;2.27;;
16640;SDS011;8434;47.990;7.880;2022-09-12T00:45:57;3.37;;;2.70;;
16640;SDS011;8434;47.990;7.880;2022-09-12T00:48:43;3.03;;;2.10;;
16640;SDS011;8434;47.990;7.880;2022-09-12T00:51:30;4.07;;;2.43;;
16640;SDS011;8434;47.990;7.880;2022-09-12T00:54:18;5.87;;;2.60;;
16640;SDS011;8434;47.990;7.880;2022-09-12T00:57:06;4.17;;;2.13;;
16640;SDS011;8434;47.990;7.880;2022-09-12T00:59:53;2.43;;;2.23;;
16640;SDS011;8434;47.990;7.880;2022-09-12T01:02:39;2.70;;;2.50;;
16640;SDS011;8434;47.990;7.880;2022-09-12T01:05:25;2.97;;;2.17;;
16640;SDS011;8434;47.990;7.880;2022-09-12T01:08:12;4.77;;;1.90;;
16640;SDS011;8434;47.990;7.880;2022-09-12T01:10:56;2.27;;;2.07;;
16640;SDS011;8434;47.990;7.880;2022-09-12T01:13:43;2.30;;;2.10;;
16640;SDS011;8434;47.990;7.880;2022-09-12T01:16:28;5.57;;;2.30;;
16640;SDS011;8434;47.990;7.880;2022-09-12T01:19:19;2.63;;;2.00;;
16640;SDS011;8434;47.990;7.880;2022-09-12T01:22:10;4.57;;;2.53;;
16640;SDS011;8434;47.990;7.880;2022-09-12T01:25:02;2.47;;;2.20;;
16640;SDS011;8434;47.990;7.880;2022-09-12T01:28:00;2.63;;;2.13;;
16640;SDS011;8434;47.990;7.880;2022-09-12T01:30:51;3.67;;;2.37;;
16640;SDS011;8434;47.990;7.880;2022-09-12T01:33:48;4.33;;;2.40;;
16640;SDS011;8434;47.990;7.880;2022-09-12T01:36:42;4.30;;;2.47;;
16640;SDS011;8434;47.990;7.880;2022-09-12T01:39:34;3.97;;;2.97;;
16640;SDS011;8434;47.990;7.880;2022-09-12T01:42:25;2.50;;;2.30;;
16640;SDS011;8434;47.990;7.880;2022-09-12T01:45:15;3.90;;;2.40;;
16640;SDS011;8434;47.990;7.880;2022-09-12T01:48:05;3.20;;;2.10;;
16640;SDS011;8434;47.990;7.880;2022-09-12T01:50:54;3.10;;;2.23;;
16640;SDS011;8434;47.990;7.880;2022-09-12T01:53:41;2.83;;;2.27;;
16640;SDS011;8434;47.990;7.880;2022-09-12T01:56:27;4.03;;;2.60;;
16640;SDS011;8434;47.990;7.880;2022-09-12T01:59:13;4.43;;;2.57;;
16640;SDS011;8434;47.990;7.880;2022-09-12T02:02:01;2.90;;;2.60;;
16640;SDS011;8434;47.990;7.880;2022-09-12T02:04:51;3.03;;;2.57;;
16640;SDS011;8434;47.990;7.880;2022-09-12T02:07:39;3.47;;;2.47;;
16640;SDS011;8434;47.990;7.880;2022-09-12T02:10:27;6.67;;;2.40;;
16640;SDS011;8434;47.990;7.880;2022-09-12T02:13:14;4.70;;;2.60;;
16640;SDS011;8434;47.990;7.880;2022-09-12T02:16:03;3.20;;;2.63;;
16640;SDS011;8434;47.990;7.880;2022-09-12T02:18:49;2.97;;;2.70;;
16640;SDS011;8434;47.990;7.880;2022-09-12T02:21:38;2.53;;;2.30;;
16640;SDS011;8434;47.990;7.880;2022-09-12T02:24:24;3.00;;;2.30;;
16640;SDS011;8434;47.990;7.880;2022-09-12T02:27:10;4.93;;;2.37;;
16640;SDS011;8434;47.990;7.880;2022-09-12T02:29:57;3.00;;;2.40;;
16640;SDS011;8434;47.990;7.880;2022-09-12T02:32:44;4.17;;;2.80;;
16640;SDS011;8434;47.990;7.880;2022-09-12T02:35:31;3.07;;;2.43;;
16640;SDS011;8434;47.990;7.880;2022-09-12T02:38:22;3.07;;;2.40;;
16640;SDS011;8434;47.990;7.880;2022-09-12T02:41:09;5.63;;;2.63;;
16640;SDS011;8434;47.990;7.880;2022-09-12T02:43:54;5.90;;;2.63;;
16640;SDS011;8434;47.990;7.880;2022-09-12T02:46:40;2.87;;;2.50;;
16640;SDS011;8434;47.990;7.880;2022-09-12T02:49:26;3.60;;;2.20;;
16640;SDS011;8434;47.990;7.880;2022-09-12T02:52:11;3.43;;;2.20;;
16640;SDS011;8434;47.990;7.880;2022-09-12T02:54:57;3.00;;;2.23;;
16640;SDS011;8434;47.990;7.880;2022-09-12T02:57:43;3.13;;;2.80;;
16640;SDS011;8434;47.990;7.880;2022-09-12T03:00:28;3.30;;;2.20;;
16640;SDS011;8434;47.990;7.880;2022-09-12T03:03:19;2.90;;;2.30;;
16640;SDS011;8434;47.990;7.880;2022-09-12T03:06:08;3.73;;;2.37;;
16640;SDS011;8434;47.990;7.880;2022-09-12T03:08:59;2.53;;;2.20;;
16640;SDS011;8434;47.990;7.880;2022-09-12T03:11:53;2.77;;;2.53;;
16640;SDS011;8434;47.990;7.880;2022-09-12T03:14:46;3.10;;;2.80;;
16640;SDS011;8434;47.990;7.880;2022-09-12T03:17:38;3.10;;;2.50;;
16640;SDS011;8434;47.990;7.880;2022-09-12T03:20:29;3.63;;;2.70;;
16640;SDS011;8434;47.990;7.880;2022-09-12T03:23:22;2.73;;;2.53;;
16640;SDS011;8434;47.990;7.880;2022-09-12T03:26:10;4.20;;;3.00;;
16640;SDS011;8434;47.990;7.880;2022-09-12T03:28:57;6.47;;;2.80;;
16640;SDS011;8434;47.990;7.880;2022-09-12T03:31:47;6.33;;;2.87;;
16640;SDS011;8434;47.990;7.880;2022-09-12T03:34:32;4.00;;;2.60;;
16640;SDS011;8434;47.990;7.880;2022-09-12T03:37:17;3.70;;;2.30;;
16640;SDS011;8434;47.990;7.880;2022-09-12T03:40:02;2.50;;;2.30;;
16640;SDS011;8434;47.990;7.880;2022-09-12T03:42:47;4.07;;;2.83;;
16640;SDS011;8434;47.990;7.880;2022-09-12T03:45:34;4.00;;;2.60;;
16640;SDS011;8434;47.990;7.880;2022-09-12T03:48:19;3.83;;;2.67;;
16640;SDS011;8434;47.990;7.880;2022-09-12T03:51:05;3.83;;;3.43;;
16640;SDS011;8434;47.990;7.880;2022-09-12T03:53:50;2.87;;;2.53;;
16640;SDS011;8434;47.990;7.880;2022-09-12T03:56:35;2.33;;;2.13;;
16640;SDS011;8434;47.990;7.880;2022-09-12T03:59:20;3.47;;;2.87;;
16640;SDS011;8434;47.990;7.880;2022-09-12T04:02:07;3.93;;;3.03;;
16640;SDS011;8434;47.990;7.880;2022-09-12T04:04:52;2.87;;;2.57;;
16640;SDS011;8434;47.990;7.880;2022-09-12T04:07:37;2.57;;;2.37;;
16640;SDS011;8434;47.990;7.880;2022-09-12T04:10:22;7.87;;;3.00;;
16640;SDS011;8434;47.990;7.880;2022-09-12T04:13:06;3.30;;;2.63;;
16640;SDS011;8434;47.990;7.880;2022-09-12T04:15:55;3.23;;;2.47;;
16640;SDS011;8434;47.990;7.880;2022-09-12T04:18:42;3.53;;;2.60;;
16640;SDS011;8434;47.990;7.880;2022-09-12T04:21:27;2.63;;;2.43;;
16640;SDS011;8434;47.990;7.880;2022-09-12T04:24:13;2.63;;;2.43;;
16640;SDS011;8434;47.990;7.880;2022-09-12T04:26:58;2.70;;;2.47;;
16640;SDS011;8434;47.990;7.880;2022-09-12T04:29:43;4.27;;;2.83;;
16640;SDS011;8434;47.990;7.880;2022-09-12T04:32:28;5.00;;;2.80;;
16640;SDS011;8434;47.990;7.880;2022-09-12T04:35:15;3.07;;;2.73;;
16640;SDS011;8434;47.990;7.880;2022-09-12T04:38:00;2.50;;;2.30;;
16640;SDS011;8434;47.990;7.880;2022-09-12T04:40:45;7.70;;;2.73;;
16640;SDS011;8434;47.990;7.880;2022-09-12T04:43:30;3.43;;;2.53;;
16640;SDS011;8434;47.990;7.880;2022-09-12T04:46:16;4.13;;;2.63;;
16640;SDS011;8434;47.990;7.880;2022-09-12T04:49:04;5.43;;;2.60;;
16640;SDS011;8434;47.990;7.880;2022-09-12T04:51:51;5.33;;;2.70;;
16640;SDS011;8434;47.990;7.880;2022-09-12T04:54:36;4.73;;;3.00;;
16640;SDS011;8434;47.990;7.880;2022-09-12T04:57:21;3.50;;;2.73;;
16640;SDS011;8434;47.990;7.880;2022-09-12T05:00:07;3.00;;;2.70;;
16640;SDS011;8434;47.990;7.880;2022-09-12T05:02:56;3.73;;;2.73;;
16640;SDS011;8434;47.990;7.880;2022-09-12T05:05:41;3.30;;;2.80;;
16640;SDS011;8434;47.990;7.880;2022-09-12T05:08:27;4.17;;;3.00;;
16640;SDS011;8434;47.990;7.880;2022-09-12T05:11:13;2.83;;;2.53;;
16640;SDS011;8434;47.990;7.880;2022-09-12T05:14:02;3.77;;;2.50;;
16640;SDS011;8434;47.990;7.880;2022-09-12T05:16:47;3.23;;;2.50;;
16640;SDS011;8434;47.990;7.880;2022-09-12T05:19:32;2.97;;;2.43;;
16640;SDS011;8434;47.990;7.880;2022-09-12T05:22:17;6.10;;;2.77;;
16640;SDS011;8434;47.990;7.880;2022-09-12T05:25:04;3.90;;;2.77;;
16640;SDS011;8434;47.990;7.880;2022-09-12T05:27:51;3.87;;;3.10;;
16640;SDS011;8434;47.990;7.880;2022-09-12T05:30:36;3.80;;;3.40;;
16640;SDS011;8434;47.990;7.880;2022-09-12T05:33:20;4.70;;;2.97;;
16640;SDS011;8434;47.990;7.880;2022-09-12T05:36:08;4.53;;;2.80;;
16640;SDS011;8434;47.990;7.880;2022-09-12T05:38:53;2.60;;;2.40;;
16640;SDS011;8434;47.990;7.880;2022-09-12T05:41:40;3.90;;;2.90;;
16640;SDS011;8434;47.990;7.880;2022-09-12T05:44:25;6.13;;;3.50;;
16640;SDS011;8434;47.990;7.880;2022-09-12T05:47:10;4.90;;;3.50;;
16640;SDS011;8434;47.990;7.880;2022-09-12T05:49:55;7.10;;;3.97;;
16640;SDS011;8434;47.990;7.880;2022-09-12T05:52:41;5.17;;;3.93;;
16640;SDS011;8434;47.990;7.880;2022-09-12T05:55:26;5.23;;;3.23;;
16640;SDS011;8434;47.990;7.880;2022-09-12T05:58:13;4.43;;;3.40;;
16640;SDS011;8434;47.990;7.880;2022-09-12T06:01:00;7.20;;;3.40;;
16640;SDS011;8434;47.990;7.880;2022-09-12T06:03:46;4.37;;;2.60;;
16640;SDS011;8434;47.990;7.880;2022-09-12T06:06:31;3.33;;;3.03;;
16640;SDS011;8434;47.990;7.880;2022-09-12T06:09:19;6.07;;;3.33;;
16640;SDS011;8434;47.990;7.880;2022-09-12T06:12:04;4.00;;;2.40;;
16640;SDS011;8434;47.990;7.880;2022-09-12T06:14:51;3.27;;;2.40;;
16640;SDS011;8434;47.990;7.880;2022-09-12T06:17:36;3.30;;;2.40;;
16640;SDS011;8434;47.990;7.880;2022-09-12T06:20:21;3.47;;;2.00;;
16640;SDS011;8434;47.990;7.880;2022-09-12T06:23:06;1.95;;;1.70;;
16640;SDS011;8434;47.990;7.880;2022-09-12T06:25:51;2.55;;;1.73;;
16640;SDS011;8434;47.990;7.880;2022-09-12T06:28:36;2.95;;;1.60;;
16640;SDS011;8434;47.990;7.880;2022-09-12T06:31:24;1.70;;;1.40;;
16640;SDS011;8434;47.990;7.880;2022-09-12T06:34:10;2.85;;;1.85;;
16640;SDS011;8434;47.990;7.880;2022-09-12T06:36:56;1.70;;;1.55;;
16640;SDS011;8434;47.990;7.880;2022-09-12T06:39:41;1.63;;;1.52;;
16640;SDS011;8434;47.990;7.880;2022-09-12T06:42:26;1.92;;;1.65;;
16640;SDS011;8434;47.990;7.880;2022-09-12T06:45:11;3.30;;;1.70;;
16640;SDS011;8434;47.990;7.880;2022-09-12T06:48:00;3.00;;;1.70;;
16640;SDS011;8434;47.990;7.880;2022-09-12T06:50:53;2.15;;;1.65;;
16640;SDS011;8434;47.990;7.880;2022-09-12T06:53:39;2.08;;;1.52;;
16640;SDS011;8434;47.990;7.880;2022-09-12T06:56:24;1.58;;;1.40;;
16640;SDS011;8434;47.990;7.880;2022-09-12T06:59:10;1.73;;;1.35;;
16640;SDS011;8434;47.990;7.880;2022-09-12T07:01:55;2.40;;;1.20;;
16640;SDS011;8434;47.990;7.880;2022-09-12T07:04:42;2.72;;;1.25;;
16640;SDS011;8434;47.990;7.880;2022-09-12T07:07:26;2.00;;;1.85;;
16640;SDS011;8434;47.990;7.880;2022-09-12T07:10:11;1.23;;;1.13;;
16640;SDS011;8434;47.990;7.880;2022-09-12T07:12:56;1.48;;;1.17;;
16640;SDS011;8434;47.990;7.880;2022-09-12T07:15:42;1.77;;;1.45;;
16640;SDS011;8434;47.990;7.880;2022-09-12T07:18:27;1.80;;;1.27;;
16640;SDS011;8434;47.990;7.880;2022-09-12T07:21:13;1.65;;;1.10;;
16640;SDS011;8434;47.990;7.880;2022-09-12T07:23:58;2.05;;;1.30;;
16640;SDS011;8434;47.990;7.880;2022-09-12T07:26:43;1.23;;;1.10;;
16640;SDS011;8434;47.990;7.880;2022-09-12T07:29:28;2.55;;;1.65;;
16640;SDS011;8434;47.990;7.880;2022-09-12T07:32:13;3.38;;;1.92;;
16640;SDS011;8434;47.990;7.880;2022-09-12T07:34:58;2.47;;;1.50;;
16640;SDS011;8434;47.990;7.880;2022-09-12T07:37:44;2.15;;;1.50;;
16640;SDS011;8434;47.990;7.880;2022-09-12T07:40:29;3.22;;;1.58;;
16640;SDS011;8434;47.990;7.880;2022-09-12T07:43:14;2.33;;;1.33;;
16640;SDS011;8434;47.990;7.880;2022-09-12T07:45:59;1.70;;;1.60;;
16640;SDS011;8434;47.990;7.880;2022-09-12T07:48:48;3.80;;;1.90;;
16640;SDS011;8434;47.990;7.880;2022-09-12T07:51:33;5.35;;;2.20;;
16640;SDS011;8434;47.990;7.880;2022-09-12T07:54:20;3.42;;;2.08;;
16640;SDS011;8434;47.990;7.880;2022-09-12T07:57:05;3.92;;;2.08;;
16640;SDS011;8434;47.990;7.880;2022-09-12T07:59:50;1.60;;;1.50;;
16640;SDS011;8434;47.990;7.880;2022-09-12T08:02:35;2.47;;;1.88;;
16640;SDS011;8434;47.990;7.880;2022-09-12T08:05:20;3.45;;;2.08;;
16640;SDS011;8434;47.990;7.880;2022-09-12T08:08:05;3.78;;;1.95;;
16640;SDS011;8434;47.990;7.880;2022-09-12T08:10:56;4.63;;;2.00;;
16640;SDS011;8434;47.990;7.880;2022-09-12T08:13:42;2.42;;;2.15;;
16640;SDS011;8434;47.990;7.880;2022-09-12T08:16:28;4.80;;;2.30;;
16640;SDS011;8434;47.990;7.880;2022-09-12T08:19:13;3.38;;;2.17;;
16640;SDS011;8434;47.990;7.880;2022-09-12T08:21:58;3.15;;;2.38;;
16640;SDS011;8434;47.990;7.880;2022-09-12T08:24:43;6.20;;;2.42;;
16640;SDS011;8434;47.990;7.880;2022-09-12T08:27:29;3.70;;;2.50;;
16640;SDS011;8434;47.990;7.880;2022-09-12T08:30:14;3.45;;;2.15;;
16640;SDS011;8434;47.990;7.880;2022-09-12T08:32:59;3.25;;;2.15;;
16640;SDS011;8434;47.990;7.880;2022-09-12T08:35:44;1.70;;;1.60;;
16640;SDS011;8434;47.990;7.880;2022-09-12T08:38:29;2.95;;;1.75;;
16640;SDS011;8434;47.990;7.880;2022-09-12T08:41:18;2.53;;;1.80;;
16640;SDS011;8434;47.990;7.880;2022-09-12T08:44:13;2.40;;;2.20;;
16640;SDS011;8434;47.990;7.880;2022-09-12T08:47:09;2.50;;;2.30;;
16640;SDS011;8434;47.990;7.880;2022-09-12T08:50:03;2.63;;;1.92;;
16640;SDS011;8434;47.990;7.880;2022-09-12T08:52:56;2.15;;;1.90;;
16640;SDS011;8434;47.990;7.880;2022-09-12T08:55:42;3.15;;;2.30;;
16640;SDS011;8434;47.990;7.880;2022-09-12T08:58:28;5.03;;;2.05;;
16640;SDS011;8434;47.990;7.880;2022-09-12T09:01:16;3.67;;;2.30;;
16640;SDS011;8434;47.990;7.880;2022-09-12T09:04:09;4.05;;;2.40;;
16640;SDS011;8434;47.990;7.880;2022-09-12T09:07:19;10.20;;;2.90;;
16640;SDS011;8434;47.990;7.880;2022-09-12T09:10:08;4.35;;;2.35;;
16640;SDS011;8434;47.990;7.880;2022-09-12T09:12:57;2.30;;;2.03;;
16640;SDS011;8434;47.990;7.880;2022-09-12T09:15:45;3.53;;;2.72;;
16640;SDS011;8434;47.990;7.880;2022-09-12T09:18:35;3.38;;;2.20;;
16640;SDS011;8434;47.990;7.880;2022-09-12T09:21:22;4.47;;;2.33;;
16640;SDS011;8434;47.990;7.880;2022-09-12T09:24:08;2.58;;;2.15;;
16640;SDS011;8434;47.990;7.880;2022-09-12T09:26:55;4.30;;;2.08;;
16640;SDS011;8434;47.990;7.880;2022-09-12T09:29:42;3.47;;;1.73;;
16640;SDS011;8434;47.990;7.880;2022-09-12T09:32:30;3.22;;;1.90;;
16640;SDS011;8434;47.990;7.880;2022-09-12T09:35:21;3.53;;;1.88;;
16640;SDS011;8434;47.990;7.880;2022-09-12T09:38:12;3.03;;;1.58;;
16640;SDS011;8434;47.990;7.880;2022-09-12T09:41:06;1.80;;;1.70;;
16640;SDS011;8434;47.990;7.880;2022-09-12T09:43:55;2.30;;;2.00;;
16640;SDS011;8434;47.990;7.880;2022-09-12T09:46:40;2.85;;;2.10;;
16640;SDS011;8434;47.990;7.880;2022-09-12T09:49:25;2.50;;;2.00;;
16640;SDS011;8434;47.990;7.880;2022-09-12T09:52:13;2.90;;;2.10;;
16640;SDS011;8434;47.990;7.880;2022-09-12T09:54:59;2.75;;;2.03;;
16640;SDS011;8434;47.990;7.880;2022-09-12T09:57:46;4.07;;;3.38;;
16640;SDS011;8434;47.990;7.880;2022-09-12T10:00:33;2.78;;;1.90;;
16640;SDS011;8434;47.990;7.880;2022-09-12T10:03:23;3.88;;;1.90;;
16640;SDS011;8434;47.990;7.880;2022-09-12T10:06:20;3.75;;;2.10;;
16640;SDS011;8434;47.990;7.880;2022-09-12T10:09:17;2.40;;;1.92;;
16640;SDS011;8434;47.990;7.880;2022-09-12T10:12:18;3.00;;;2.00;;
16640;SDS011;8434;47.990;7.880;2022-09-12T10:15:15;1.77;;;1.55;;
16640;SDS011;8434;47.990;7.880;2022-09-12T10:18:00;4.30;;;2.22;;
16640;SDS011;8434;47.990;7.880;2022-09-12T10:20:46;1.83;;;1.58;;
16640;SDS011;8434;47.990;7.880;2022-09-12T10:23:32;2.40;;;1.70;;
16640;SDS011;8434;47.990;7.880;2022-09-12T10:26:20;2.10;;;1.65;;
16640;SDS011;8434;47.990;7.880;2022-09-12T10:29:10;3.80;;;1.70;;
16640;SDS011;8434;47.990;7.880;2022-09-12T10:31:56;2.55;;;1.60;;
16640;SDS011;8434;47.990;7.880;2022-09-12T10:34:42;2.50;;;1.40;;
16640;SDS011;8434;47.990;7.880;2022-09-12T10:37:29;1.98;;;1.45;;
16640;SDS011;8434;47.990;7.880;2022-09-12T10:40:20;2.90;;;1.60;;
16640;SDS011;8434;47.990;7.880;2022-09-12T10:43:16;1.52;;;1.33;;
16640;SDS011;8434;47.990;7.880;2022-09-12T10:49:11;2.08;;;1.83;;
16640;SDS011;8434;47.990;7.880;2022-09-12T10:52:14;2.90;;;1.90;;
16640;SDS011;8434;47.990;7.880;2022-09-12T10:55:00;4.40;;;2.10;;
16640;SDS011;8434;47.990;7.880;2022-09-12T10:58:05;2.22;;;2.03;;
16640;SDS011;8434;47.990;7.880;2022-09-12T11:00:55;3.80;;;2.38;;
16640;SDS011;8434;47.990;7.880;2022-09-12T11:03:47;2.15;;;1.83;;
16640;SDS011;8434;47.990;7.880;2022-09-12T11:06:36;3.05;;;1.60;;
16640;SDS011;8434;47.990;7.880;2022-09-12T11:09:24;2.10;;;1.77;;
16640;SDS011;8434;47.990;7.880;2022-09-12T11:12:14;2.92;;;1.92;;
16640;SDS011;8434;47.990;7.880;2022-09-12T11:15:08;2.92;;;2.00;;
16640;SDS011;8434;47.990;7.880;2022-09-12T11:17:59;1.70;;;1.60;;
16640;SDS011;8434;47.990;7.880;2022-09-12T11:20:55;1.83;;;1.70;;
16640;SDS011;8434;47.990;7.880;2022-09-12T11:23:58;1.98;;;1.77;;
16640;SDS011;8434;47.990;7.880;2022-09-12T11:26:48;2.22;;;1.80;;
16640;SDS011;8434;47.990;7.880;2022-09-12T11:29:38;2.58;;;2.00;;
16640;SDS011;8434;47.990;7.880;2022-09-12T11:32:31;1.67;;;1.58;;
16640;SDS011;8434;47.990;7.880;2022-09-12T11:35:23;2.85;;;1.80;;
16640;SDS011;8434;47.990;7.880;2022-09-12T11:41:20;4.05;;;1.75;;
16640;SDS011;8434;47.990;7.880;2022-09-12T11:44:09;4.38;;;1.85;;
16640;SDS011;8434;47.990;7.880;2022-09-12T11:46:56;1.75;;;1.65;;
16640;SDS011;8434;47.990;7.880;2022-09-12T11:49:43;2.40;;;2.20;;
16640;SDS011;8434;47.990;7.880;2022-09-12T11:52:32;2.42;;;1.80;;
16640;SDS011;8434;47.990;7.880;2022-09-12T11:55:20;2.47;;;1.85;;
16640;SDS011;8434;47.990;7.880;2022-09-12T11:58:09;2.83;;;1.90;;
16640;SDS011;8434;47.990;7.880;2022-09-12T12:00:56;3.35;;;1.90;;
16640;SDS011;8434;47.990;7.880;2022-09-12T12:03:43;1.98;;;1.75;;
16640;SDS011;8434;47.990;7.880;2022-09-12T12:06:29;1.98;;;1.70;;
16640;SDS011;8434;47.990;7.880;2022-09-12T12:09:16;3.75;;;1.98;;
16640;SDS011;8434;47.990;7.880;2022-09-12T12:12:02;3.28;;;1.90;;
16640;SDS011;8434;47.990;7.880;2022-09-12T12:14:49;2.42;;;1.70;;
16640;SDS011;8434;47.990;7.880;2022-09-12T12:17:35;2.80;;;1.70;;
16640;SDS011;8434;47.990;7.880;2022-09-12T12:20:21;1.73;;;1.63;;
16640;SDS011;8434;47.990;7.880;2022-09-12T12:23:19;2.55;;;1.77;;
16640;SDS011;8434;47.990;7.880;2022-09-12T12:26:08;2.83;;;1.90;;
16640;SDS011;8434;47.990;7.880;2022-09-12T12:29:15;1.88;;;1.65;;
16640;SDS011;8434;47.990;7.880;2022-09-12T12:32:21;2.70;;;1.60;;
16640;SDS011;8434;47.990;7.880;2022-09-12T12:38:25;1.88;;;1.73;;
16640;SDS011;8434;47.990;7.880;2022-09-12T12:44:47;1.65;;;1.55;;
16640;SDS011;8434;47.990;7.880;2022-09-12T12:47:33;2.85;;;1.63;;
16640;SDS011;8434;47.990;7.880;2022-09-12T12:50:24;1.70;;;1.60;;
16640;SDS011;8434;47.990;7.880;2022-09-12T12:53:15;1.70;;;1.60;;
16640;SDS011;8434;47.990;7.880;2022-09-12T12:56:01;1.50;;;1.40;;
16640;SDS011;8434;47.990;7.880;2022-09-12T12:58:47;2.85;;;1.55;;
16640;SDS011;8434;47.990;7.880;2022-09-12T13:01:33;2.08;;;1.55;;
16640;SDS011;8434;47.990;7.880;2022-09-12T13:04:24;2.28;;;1.50;;
16640;SDS011;8434;47.990;7.880;2022-09-12T13:07:12;5.65;;;1.58;;
16640;SDS011;8434;47.990;7.880;2022-09-12T13:10:06;3.35;;;1.55;;
16640;SDS011;8434;47.990;7.880;2022-09-12T13:12:51;2.85;;;1.60;;
16640;SDS011;8434;47.990;7.880;2022-09-12T13:15:47;1.50;;;1.40;;
16640;SDS011;8434;47.990;7.880;2022-09-12T13:18:39;2.10;;;1.40;;
16640;SDS011;8434;47.990;7.880;2022-09-12T13:21:25;2.88;;;1.40;;
16640;SDS011;8434;47.990;7.880;2022-09-12T13:24:12;2.80;;;1.50;;
16640;SDS011;8434;47.990;7.880;2022-09-12T13:26:58;2.05;;;1.33;;
16640;SDS011;8434;47.990;7.880;2022-09-12T13:29:43;1.80;;;1.50;;
16640;SDS011;8434;47.990;7.880;2022-09-12T13:32:27;1.80;;;1.35;;
16640;SDS011;8434;47.990;7.880;2022-09-12T13:35:18;3.85;;;1.80;;
16640;SDS011;8434;47.990;7.880;2022-09-12T13:38:07;2.10;;;1.40;;
16640;SDS011;8434;47.990;7.880;2022-09-12T13:41:01;1.77;;;1.65;;
16640;SDS011;8434;47.990;7.880;2022-09-12T13:43:50;2.00;;;1.60;;
16640;SDS011;8434;47.990;7.880;2022-09-12T13:46:35;2.10;;;1.35;;
16640;SDS011;8434;47.990;7.880;2022-09-12T13:49:21;2.20;;;1.50;;
16640;SDS011;8434;47.990;7.880;2022-09-12T13:52:17;1.60;;;1.50;;
16640;SDS011;8434;47.990;7.880;2022-09-12T13:55:04;3.78;;;1.50;;
16640;SDS011;8434;47.990;7.880;2022-09-12T13:57:54;1.63;;;1.52;;
16640;SDS011;8434;47.990;7.880;2022-09-12T14:00:40;2.55;;;1.73;;
16640;SDS011;8434;47.990;7.880;2022-09-12T14:03:26;2.17;;;1.70;;
16640;SDS011;8434;47.990;7.880;2022-09-12T14:06:33;1.65;;;1.55;;
16640;SDS011;8434;47.990;7.880;2022-09-12T14:09:22;2.75;;;1.90;;
16640;SDS011;8434;47.990;7.880;2022-09-12T14:12:14;2.63;;;1.30;;
16640;SDS011;8434;47.990;7.880;2022-09-12T14:15:03;1.83;;;1.50;;
16640;SDS011;8434;47.990;7.880;2022-09-12T14:17:50;1.70;;;1.58;;
16640;SDS011;8434;47.990;7.880;2022-09-12T14:20:36;2.17;;;1.70;;
16640;SDS011;8434;47.990;7.880;2022-09-12T14:23:25;1.77;;;1.67;;
16640;SDS011;8434;47.990;7.880;2022-09-12T14:26:12;6.40;;;2.25;;
16640;SDS011;8434;47.990;7.880;2022-09-12T14:29:00;2.85;;;1.58;;
16640;SDS011;8434;47.990;7.880;2022-09-12T14:31:45;1.70;;;1.60;;
16640;SDS011;8434;47.990;7.880;2022-09-12T14:34:30;3.78;;;1.50;;
16640;SDS011;8434;47.990;7.880;2022-09-12T14:37:15;3.05;;;1.60;;
16640;SDS011;8434;47.990;7.880;2022-09-12T14:40:00;1.83;;;1.73;;
16640;SDS011;8434;47.990;7.880;2022-09-12T14:42:48;4.15;;;1.50;;
16640;SDS011;8434;47.990;7.880;2022-09-12T14:45:33;1.30;;;1.20;;
16640;SDS011;8434;47.990;7.880;2022-09-12T14:48:18;1.88;;;1.70;;
16640;SDS011;8434;47.990;7.880;2022-09-12T14:51:03;1.63;;;1.20;;
16640;SDS011;8434;47.990;7.880;2022-09-12T14:53:55;1.58;;;1.48;;
16640;SDS011;8434;47.990;7.880;2022-09-12T14:56:42;1.50;;;1.38;;
16640;SDS011;8434;47.990;7.880;2022-09-12T14:59:29;2.00;;;1.83;;
16640;SDS011;8434;47.990;7.880;2022-09-12T15:02:21;3.38;;;1.60;;
16640;SDS011;8434;47.990;7.880;2022-09-12T15:05:14;1.52;;;1.42;;
16640;SDS011;8434;47.990;7.880;2022-09-12T15:08:00;3.08;;;1.42;;
16640;SDS011;8434;47.990;7.880;2022-09-12T15:10:45;3.70;;;1.40;;
16640;SDS011;8434;47.990;7.880;2022-09-12T15:13:37;2.80;;;1.58;;
16640;SDS011;8434;47.990;7.880;2022-09-12T15:16:24;1.92;;;1.50;;
16640;SDS011;8434;47.990;7.880;2022-09-12T15:19:09;2.05;;;1.50;;
16640;SDS011;8434;47.990;7.880;2022-09-12T15:21:54;1.50;;;1.40;;
16640;SDS011;8434;47.990;7.880;2022-09-12T15:24:39;3.10;;;1.10;;
16640;SDS011;8434;47.990;7.880;2022-09-12T15:27:25;4.00;;;1.35;;
16640;SDS011;8434;47.990;7.880;2022-09-12T15:30:10;1.85;;;1.42;;
16640;SDS011;8434;47.990;7.880;2022-09-12T15:32:57;2.97;;;1.52;;
16640;SDS011;8434;47.990;7.880;2022-09-12T15:35:43;1.58;;;1.30;;
16640;SDS011;8434;47.990;7.880;2022-09-12T15:38:28;1.40;;;1.30;;
16640;SDS011;8434;47.990;7.880;2022-09-12T15:41:14;1.92;;;1.40;;
16640;SDS011;8434;47.990;7.880;2022-09-12T15:44:00;1.58;;;1.40;;
16640;SDS011;8434;47.990;7.880;2022-09-12T15:46:46;1.30;;;1.17;;
16640;SDS011;8434;47.990;7.880;2022-09-12T15:49:32;3.45;;;1.65;;
16640;SDS011;8434;47.990;7.880;2022-09-12T15:52:17;3.28;;;1.30;;
16640;SDS011;8434;47.990;7.880;2022-09-12T15:55:03;2.35;;;1.20;;
16640;SDS011;8434;47.990;7.880;2022-09-12T15:57:48;2.47;;;1.42;;
16640;SDS011;8434;47.990;7.880;2022-09-12T16:00:33;1.30;;;1.20;;
16640;SDS011;8434;47.990;7.880;2022-09-12T16:03:22;2.03;;;1.20;;
16640;SDS011;8434;47.990;7.880;2022-09-12T16:06:12;3.90;;;1.20;;
16640;SDS011;8434;47.990;7.880;2022-09-12T16:08:58;3.30;;;1.50;;
16640;SDS011;8434;47.990;7.880;2022-09-12T16:11:43;1.42;;;1.05;;
16640;SDS011;8434;47.990;7.880;2022-09-12T16:14:28;2.53;;;1.50;;
16640;SDS011;8434;47.990;7.880;2022-09-12T16:17:13;1.90;;;1.42;;
16640;SDS011;8434;47.990;7.880;2022-09-12T16:20:01;1.67;;;1.45;;
16640;SDS011;8434;47.990;7.880;2022-09-12T16:22:48;1.50;;;1.20;;
16640;SDS011;8434;47.990;7.880;2022-09-12T16:25:33;1.65;;;1.20;;
16640;SDS011;8434;47.990;7.880;2022-09-12T16:28:20;2.85;;;1.40;;
16640;SDS011;8434;47.990;7.880;2022-09-12T16:31:06;1.20;;;1.10;;
16640;SDS011;8434;47.990;7.880;2022-09-12T16:33:51;1.65;;;1.10;;
16640;SDS011;8434;47.990;7.880;2022-09-12T16:36:36;1.65;;;1.20;;
16640;SDS011;8434;47.990;7.880;2022-09-12T16:39:22;1.00;;;0.90;;
16640;SDS011;8434;47.990;7.880;2022-09-12T16:42:10;1.33;;;1.05;;
16640;SDS011;8434;47.990;7.880;2022-09-12T16:44:55;0.98;;;0.93;;
16640;SDS011;8434;47.990;7.880;2022-09-12T16:47:40;2.33;;;0.88;;
16640;SDS011;8434;47.990;7.880;2022-09-12T16:50:25;2.72;;;0.98;;
16640;SDS011;8434;47.990;7.880;2022-09-12T16:53:11;1.85;;;1.00;;
16640;SDS011;8434;47.990;7.880;2022-09-12T16:55:58;1.63;;;1.10;;
16640;SDS011;8434;47.990;7.880;2022-09-12T16:58:43;1.83;;;1.20;;
16640;SDS011;8434;47.990;7.880;2022-09-12T17:01:28;2.47;;;1.00;;
16640;SDS011;8434;47.990;7.880;2022-09-12T17:04:13;1.27;;;1.02;;
16640;SDS011;8434;47.990;7.880;2022-09-12T17:06:58;1.17;;;0.82;;
16640;SDS011;8434;47.990;7.880;2022-09-12T17:09:43;1.38;;;0.80;;
16640;SDS011;8434;47.990;7.880;2022-09-12T17:12:31;1.58;;;1.08;;
16640;SDS011;8434;47.990;7.880;2022-09-12T17:15:17;4.25;;;1.30;;
16640;SDS011;8434;47.990;7.880;2022-09-12T17:18:02;2.50;;;1.30;;